createdAt,value
2022-07-27T00:00:52.761Z,2.67
2022-07-27T00:03:19.749Z,2.60
2022-07-27T00:05:46.892Z,1.88
2022-07-27T00:08:13.739Z,2.28
2022-07-27T00:10:40.641Z,2.45
2022-07-27T00:13:07.976Z,3.20
2022-07-27T00:15:35.069Z,2.40
2022-07-27T00:18:02.614Z,2.20
2022-07-27T00:20:31.277Z,3.17
2022-07-27T00:22:59.508Z,2.78
2022-07-27T00:25:27.746Z,2.70
2022-07-27T00:27:58.805Z,2.63
2022-07-27T00:30:26.599Z,2.63
2022-07-27T00:32:53.759Z,2.45
2022-07-27T00:35:20.960Z,2.65
2022-07-27T00:37:47.751Z,2.50
2022-07-27T00:40:15.692Z,2.92
2022-07-27T00:42:42.984Z,2.83
2022-07-27T00:45:10.608Z,2.30
2022-07-27T00:47:37.465Z,2.30
2022-07-27T00:50:05.691Z,2.90
2022-07-27T00:52:33.008Z,2.28
2022-07-27T00:55:00.135Z,2.30
2022-07-27T00:57:28.058Z,2.72
2022-07-27T00:59:55.669Z,2.00
2022-07-27T01:02:23.432Z,2.30
2022-07-27T01:04:53.520Z,2.55
2022-07-27T01:07:21.636Z,2.40
2022-07-27T01:09:56.586Z,2.92
2022-07-27T01:12:26.196Z,2.63
2022-07-27T01:14:53.617Z,2.40
2022-07-27T01:17:20.730Z,2.65
2022-07-27T01:19:47.889Z,2.97
2022-07-27T01:22:14.666Z,2.40
2022-07-27T01:24:41.469Z,2.53
2022-07-27T01:27:08.673Z,3.00
2022-07-27T01:29:36.701Z,2.63
2022-07-27T01:32:04.497Z,2.55
2022-07-27T01:34:33.616Z,2.90
2022-07-27T01:37:02.232Z,3.30
2022-07-27T01:39:29.061Z,3.22
2022-07-27T01:41:56.182Z,2.50
2022-07-27T01:44:23.045Z,2.85
2022-07-27T01:46:50.186Z,2.60
2022-07-27T01:49:17.687Z,2.60
2022-07-27T01:51:44.873Z,2.83
2022-07-27T01:54:12.391Z,2.38
2022-07-27T01:56:39.323Z,2.10
2022-07-27T01:59:06.132Z,2.40
2022-07-27T02:01:32.951Z,2.00
2022-07-27T02:03:59.735Z,2.35
2022-07-27T02:06:26.584Z,2.38
2022-07-27T02:08:53.448Z,2.58
2022-07-27T02:11:38.738Z,2.90
2022-07-27T02:14:05.671Z,2.80
2022-07-27T02:16:33.616Z,2.33
2022-07-27T02:19:00.604Z,2.72
2022-07-27T02:21:32.124Z,2.75
2022-07-27T02:23:58.877Z,2.47
2022-07-27T02:26:26.848Z,2.67
2022-07-27T02:28:53.614Z,2.90
2022-07-27T02:31:20.812Z,2.42
2022-07-27T02:33:47.604Z,2.80
2022-07-27T02:36:14.426Z,2.90
2022-07-27T02:38:41.227Z,2.45
2022-07-27T02:41:07.997Z,2.72
2022-07-27T02:43:34.793Z,2.70
2022-07-27T02:46:01.704Z,2.50
2022-07-27T02:48:28.578Z,2.67
2022-07-27T02:51:00.491Z,2.88
2022-07-27T02:53:28.453Z,2.70
2022-07-27T02:55:56.264Z,2.58
2022-07-27T02:58:23.940Z,2.63
2022-07-27T03:00:54.949Z,2.97
2022-07-27T03:03:33.871Z,3.10
2022-07-27T03:06:05.441Z,2.85
2022-07-27T03:08:32.614Z,3.22
2022-07-27T03:10:59.762Z,3.13
2022-07-27T03:13:26.777Z,3.05
2022-07-27T03:15:54.057Z,3.75
2022-07-27T03:18:21.489Z,2.78
2022-07-27T03:20:48.704Z,2.67
2022-07-27T03:23:17.995Z,3.00
2022-07-27T03:25:44.801Z,2.75
2022-07-27T03:28:11.709Z,2.60
2022-07-27T03:30:38.581Z,2.42
2022-07-27T03:33:05.607Z,2.47
2022-07-27T03:35:32.596Z,2.65
2022-07-27T03:37:59.404Z,2.85
2022-07-27T03:40:29.290Z,3.00
2022-07-27T03:42:56.571Z,3.45
2022-07-27T03:45:23.487Z,2.90
2022-07-27T03:47:50.290Z,3.35
2022-07-27T03:50:17.913Z,2.72
2022-07-27T03:52:45.408Z,2.95
2022-07-27T03:55:12.657Z,2.83
2022-07-27T03:57:39.485Z,2.53
2022-07-27T04:00:08.577Z,2.47
2022-07-27T04:02:36.015Z,2.50
2022-07-27T04:05:02.927Z,2.78
2022-07-27T04:07:29.841Z,2.55
2022-07-27T04:09:56.638Z,2.63
2022-07-27T04:12:24.108Z,2.47
2022-07-27T04:14:51.480Z,2.63
2022-07-27T04:17:56.265Z,2.33
2022-07-27T04:20:07.035Z,2.25
2022-07-27T04:22:34.332Z,2.33
2022-07-27T04:25:01.229Z,2.80
2022-07-27T04:27:28.022Z,2.33
2022-07-27T04:29:54.804Z,2.60
2022-07-27T04:32:21.628Z,2.47
2022-07-27T04:34:48.427Z,1.85
2022-07-27T04:37:15.317Z,2.80
2022-07-27T04:39:42.399Z,2.88
2022-07-27T04:42:09.519Z,2.05
2022-07-27T04:44:36.344Z,2.03
2022-07-27T04:47:03.152Z,2.30
2022-07-27T04:49:29.953Z,2.47
2022-07-27T04:51:56.849Z,2.53
2022-07-27T04:54:23.733Z,3.58
2022-07-27T04:56:50.703Z,2.35
2022-07-27T04:59:17.625Z,2.70
2022-07-27T05:01:45.379Z,2.80
2022-07-27T05:04:12.310Z,2.80
2022-07-27T05:06:39.196Z,2.47
2022-07-27T05:09:05.965Z,2.67
2022-07-27T05:11:32.984Z,3.10
2022-07-27T05:13:59.732Z,2.50
2022-07-27T05:16:28.782Z,2.65
2022-07-27T05:18:57.335Z,2.55
2022-07-27T05:21:25.145Z,2.78
2022-07-27T05:23:52.302Z,2.60
2022-07-27T05:26:19.167Z,2.30
2022-07-27T05:28:45.998Z,2.70
2022-07-27T05:31:13.275Z,2.15
2022-07-27T05:33:43.935Z,2.70
2022-07-27T05:36:15.159Z,2.47
2022-07-27T05:38:42.131Z,2.65
2022-07-27T05:41:09.569Z,2.60
2022-07-27T05:43:36.844Z,2.55
2022-07-27T05:46:04.272Z,2.92
2022-07-27T05:48:31.665Z,2.85
2022-07-27T05:50:58.988Z,2.95
2022-07-27T05:53:26.133Z,2.92
2022-07-27T05:55:58.488Z,2.70
2022-07-27T05:58:30.010Z,2.53
2022-07-27T06:01:00.374Z,2.50
2022-07-27T06:03:27.425Z,2.85
2022-07-27T06:06:14.393Z,3.35
2022-07-27T06:08:41.403Z,3.08
2022-07-27T06:11:08.412Z,3.50
2022-07-27T06:13:36.720Z,3.38
2022-07-27T06:16:04.248Z,2.85
2022-07-27T06:35:25.049Z,3.70
2022-07-27T06:37:53.011Z,4.00
2022-07-27T06:40:20.601Z,4.93
2022-07-27T06:42:47.520Z,4.03
2022-07-27T06:45:14.404Z,3.75
2022-07-27T06:47:49.088Z,3.40
2022-07-27T06:50:18.145Z,3.67
2022-07-27T06:52:44.987Z,6.25
2022-07-27T06:55:12.304Z,3.42
2022-07-27T06:57:39.112Z,3.78
2022-07-27T07:00:07.355Z,4.40
2022-07-27T07:02:34.125Z,8.00
2022-07-27T07:05:01.036Z,10.18
2022-07-27T07:07:27.797Z,3.65
2022-07-27T07:09:54.530Z,8.32
2022-07-27T07:12:21.791Z,3.10
2022-07-27T07:14:48.576Z,5.28
2022-07-27T07:17:15.408Z,3.65
2022-07-27T07:19:42.171Z,5.20
2022-07-27T07:22:08.957Z,7.78
2022-07-27T07:24:36.091Z,3.45
2022-07-27T07:27:03.436Z,8.73
2022-07-27T07:29:30.660Z,3.85
2022-07-27T07:31:57.595Z,3.65
2022-07-27T07:34:24.443Z,14.93
2022-07-27T07:36:51.712Z,4.20
2022-07-27T07:39:18.507Z,4.28
2022-07-27T07:41:45.309Z,5.57
2022-07-27T07:44:12.323Z,3.90
2022-07-27T07:46:41.533Z,4.45
2022-07-27T07:49:11.907Z,8.70
2022-07-27T07:51:39.034Z,4.18
2022-07-27T07:54:05.829Z,4.80
2022-07-27T07:56:32.786Z,3.63
2022-07-27T07:58:59.666Z,4.30
2022-07-27T08:01:26.600Z,4.28
2022-07-27T08:03:53.540Z,3.67
2022-07-27T08:06:20.378Z,4.30
2022-07-27T08:08:47.875Z,3.33
2022-07-27T08:11:14.929Z,3.05
2022-07-27T08:13:41.839Z,3.38
2022-07-27T08:16:09.102Z,4.05
2022-07-27T08:18:35.934Z,3.63
2022-07-27T08:21:02.744Z,3.88
2022-07-27T08:23:31.799Z,3.10
2022-07-27T08:26:02.866Z,3.88
2022-07-27T08:28:37.206Z,3.22
2022-07-27T08:31:08.987Z,3.60
2022-07-27T08:33:41.628Z,3.97
2022-07-27T08:36:08.483Z,3.80
2022-07-27T08:38:35.700Z,3.58
2022-07-27T08:41:06.655Z,3.63
2022-07-27T08:43:34.109Z,3.50
2022-07-27T08:46:01.429Z,4.28
2022-07-27T08:48:31.215Z,4.55
2022-07-27T08:50:58.633Z,3.63
2022-07-27T08:53:52.488Z,3.33
2022-07-27T08:56:17.836Z,5.07
2022-07-27T08:58:45.942Z,3.80
2022-07-27T09:01:12.748Z,3.20
2022-07-27T09:03:39.566Z,2.85
2022-07-27T09:06:06.370Z,3.33
2022-07-27T09:08:33.972Z,3.42
2022-07-27T09:11:03.358Z,4.75
2022-07-27T09:13:33.388Z,3.35
2022-07-27T09:16:23.556Z,3.65
2022-07-27T09:19:00.417Z,3.28
2022-07-27T09:21:28.483Z,3.42
2022-07-27T09:24:23.377Z,3.55
2022-07-27T09:27:04.303Z,4.03
2022-07-27T09:29:36.221Z,3.95
2022-07-27T09:32:14.525Z,3.25
2022-07-27T09:34:41.332Z,3.22
2022-07-27T09:37:09.606Z,3.30
2022-07-27T09:39:36.352Z,3.10
2022-07-27T09:42:03.574Z,3.30
2022-07-27T09:44:43.405Z,3.50
2022-07-27T09:47:30.796Z,3.50
2022-07-27T09:50:21.574Z,3.38
2022-07-27T09:52:48.483Z,3.25
2022-07-27T09:55:20.574Z,3.15
2022-07-27T09:57:58.606Z,3.10
2022-07-27T10:00:26.763Z,3.20
2022-07-27T10:02:54.128Z,3.40
2022-07-27T10:05:22.642Z,3.38
2022-07-27T10:07:52.809Z,2.92
2022-07-27T10:10:21.394Z,3.10
2022-07-27T10:12:54.156Z,3.05
2022-07-27T10:15:23.612Z,3.40
2022-07-27T10:18:01.443Z,3.10
2022-07-27T10:20:29.802Z,3.78
2022-07-27T10:23:01.457Z,2.90
2022-07-27T10:25:37.423Z,3.25
2022-07-27T10:28:14.871Z,3.03
2022-07-27T10:30:42.285Z,3.45
2022-07-27T10:33:17.055Z,3.15
2022-07-27T10:35:43.916Z,3.10
2022-07-27T10:38:18.184Z,3.33
2022-07-27T10:40:45.247Z,3.13
2022-07-27T10:43:22.721Z,3.97
2022-07-27T10:46:02.420Z,3.47
2022-07-27T10:48:48.087Z,2.83
2022-07-27T10:51:16.575Z,3.30
2022-07-27T10:54:10.912Z,2.95
2022-07-27T10:56:49.053Z,3.00
2022-07-27T11:00:06.414Z,2.90
2022-07-27T11:02:42.377Z,3.28
2022-07-27T11:05:57.979Z,2.97
2022-07-27T11:08:47.290Z,3.53
2022-07-27T11:10:48.216Z,5.72
2022-07-27T11:13:19.970Z,3.03
2022-07-27T11:16:22.837Z,3.92
2022-07-27T11:19:05.362Z,3.60
2022-07-27T11:21:37.185Z,2.95
2022-07-27T11:24:17.486Z,3.13
2022-07-27T11:26:47.318Z,3.03
2022-07-27T11:29:16.327Z,3.10
2022-07-27T11:31:55.430Z,3.63
2022-07-27T11:34:36.527Z,2.95
2022-07-27T11:37:11.839Z,3.22
2022-07-27T11:42:37.931Z,3.65
2022-07-27T11:45:05.437Z,3.10
2022-07-27T11:47:34.035Z,3.20
2022-07-27T11:50:07.384Z,3.00
2022-07-27T11:52:34.609Z,3.78
2022-07-27T11:55:01.505Z,3.00
2022-07-27T11:57:33.061Z,3.17
2022-07-27T12:00:00.058Z,3.25
2022-07-27T12:02:27.413Z,3.45
2022-07-27T12:05:00.426Z,4.10
2022-07-27T12:07:31.531Z,3.80
2022-07-27T12:10:05.024Z,4.20
2022-07-27T12:12:33.702Z,3.50
2022-07-27T12:18:05.899Z,3.03
2022-07-27T12:20:34.813Z,3.40
2022-07-27T12:23:07.801Z,3.35
2022-07-27T12:25:36.254Z,3.40
2022-07-27T12:28:09.347Z,3.35
2022-07-27T12:30:39.165Z,3.10
2022-07-27T12:33:29.559Z,3.10
2022-07-27T12:35:57.940Z,3.22
2022-07-27T12:38:25.440Z,2.80
2022-07-27T12:41:00.579Z,2.80
2022-07-27T12:43:28.173Z,2.90
2022-07-27T12:45:55.834Z,3.13
2022-07-27T12:48:37.672Z,3.25
2022-07-27T12:51:07.443Z,2.88
2022-07-27T12:53:36.437Z,3.10
2022-07-27T12:56:08.928Z,2.85
2022-07-27T12:58:37.370Z,2.90
2022-07-27T13:01:05.557Z,2.67
2022-07-27T13:03:32.536Z,3.13
2022-07-27T13:05:59.793Z,3.08
2022-07-27T13:08:26.625Z,2.90
2022-07-27T13:10:53.864Z,3.28
2022-07-27T13:13:24.533Z,3.30
2022-07-27T13:15:51.897Z,3.67
2022-07-27T13:18:23.178Z,3.75
2022-07-27T13:20:51.029Z,3.90
2022-07-27T13:23:18.342Z,3.50
2022-07-27T13:25:45.419Z,3.60
2022-07-27T13:28:12.629Z,3.30
2022-07-27T13:30:39.959Z,3.40
2022-07-27T13:33:06.880Z,3.95
2022-07-27T13:35:34.195Z,3.97
2022-07-27T13:38:00.987Z,3.70
2022-07-27T13:40:28.097Z,3.88
2022-07-27T13:42:54.885Z,3.45
2022-07-27T13:45:21.835Z,3.90
2022-07-27T13:47:48.743Z,3.33
2022-07-27T13:50:19.391Z,4.15
2022-07-27T13:52:48.138Z,4.00
2022-07-27T13:55:16.632Z,3.95
2022-07-27T13:57:45.822Z,4.32
2022-07-27T14:00:13.689Z,3.42
2022-07-27T14:02:41.941Z,3.72
2022-07-27T14:05:13.066Z,3.70
2022-07-27T14:07:42.022Z,3.70
2022-07-27T14:10:30.676Z,3.88
2022-07-27T14:13:07.816Z,3.25
2022-07-27T14:15:54.258Z,3.55
2022-07-27T14:18:32.366Z,3.78
2022-07-27T14:21:01.760Z,3.50
2022-07-27T14:23:30.092Z,3.75
2022-07-27T14:25:58.979Z,4.05
2022-07-27T14:28:27.696Z,3.75
2022-07-27T14:30:55.351Z,3.38
2022-07-27T14:33:23.446Z,3.33
2022-07-27T14:35:51.060Z,3.40
2022-07-27T14:38:26.793Z,3.08
2022-07-27T14:40:58.410Z,3.20
2022-07-27T14:43:25.284Z,3.10
2022-07-27T14:45:52.084Z,3.33
2022-07-27T14:48:32.138Z,3.10
2022-07-27T14:51:06.884Z,3.47
2022-07-27T14:53:33.821Z,3.80
2022-07-27T14:56:01.150Z,2.97
2022-07-27T14:58:28.340Z,3.15
2022-07-27T15:00:55.570Z,3.00
2022-07-27T15:03:23.108Z,3.05
2022-07-27T15:05:51.040Z,2.78
2022-07-27T15:08:20.202Z,3.03
2022-07-27T15:10:48.701Z,2.95
2022-07-27T15:13:15.988Z,2.63
2022-07-27T15:15:42.991Z,3.05
2022-07-27T15:18:10.309Z,2.70
2022-07-27T15:20:37.491Z,2.60
2022-07-27T15:23:04.422Z,2.72
2022-07-27T15:25:31.671Z,3.30
2022-07-27T15:27:58.722Z,2.95
2022-07-27T15:30:25.554Z,3.00
2022-07-27T15:32:52.784Z,2.83
2022-07-27T15:35:19.569Z,2.80
2022-07-27T15:37:54.603Z,2.70
2022-07-27T15:40:38.236Z,2.75
2022-07-27T15:43:07.052Z,2.88
2022-07-27T15:45:40.368Z,2.47
2022-07-27T15:48:10.156Z,2.92
2022-07-27T15:50:39.089Z,2.60
2022-07-27T15:53:06.492Z,2.40
2022-07-27T15:55:34.888Z,2.95
2022-07-27T15:58:04.101Z,2.35
2022-07-27T16:00:38.676Z,2.45
2022-07-27T16:03:06.781Z,2.85
2022-07-27T16:05:34.077Z,3.10
2022-07-27T16:08:00.986Z,2.75
2022-07-27T16:10:29.871Z,3.17
2022-07-27T16:12:57.852Z,3.28
2022-07-27T16:15:44.700Z,3.15
2022-07-27T16:18:12.239Z,3.00
2022-07-27T16:20:39.120Z,2.83
2022-07-27T16:23:18.683Z,3.60
2022-07-27T16:26:10.029Z,3.53
2022-07-27T16:28:40.921Z,4.07
2022-07-27T16:31:10.487Z,3.58
2022-07-27T16:33:37.885Z,3.72
2022-07-27T16:36:08.831Z,3.60
2022-07-27T16:38:37.063Z,3.53
2022-07-27T16:41:07.110Z,3.15
2022-07-27T16:43:38.574Z,3.95
2022-07-27T16:46:10.200Z,3.50
2022-07-27T16:48:42.260Z,3.80
2022-07-27T16:51:11.377Z,3.95
2022-07-27T16:53:39.735Z,3.70
2022-07-27T16:56:06.986Z,4.03
2022-07-27T16:58:34.386Z,4.15
2022-07-27T17:01:01.499Z,3.72
2022-07-27T17:03:28.451Z,4.25
2022-07-27T17:05:55.249Z,3.80
2022-07-27T17:08:27.833Z,3.70
2022-07-27T17:10:55.540Z,4.55
2022-07-27T17:13:22.342Z,4.25
2022-07-27T17:16:00.836Z,4.05
2022-07-27T17:18:27.914Z,4.30
2022-07-27T17:20:54.729Z,4.28
2022-07-27T17:23:21.501Z,4.32
2022-07-27T17:25:48.277Z,4.32
2022-07-27T17:28:15.167Z,4.10
2022-07-27T17:30:42.405Z,4.35
2022-07-27T17:33:09.210Z,4.20
2022-07-27T17:35:36.005Z,4.47
2022-07-27T17:38:06.581Z,4.85
2022-07-27T17:40:35.619Z,4.90
2022-07-27T17:43:03.089Z,4.65
2022-07-27T17:45:29.946Z,4.95
2022-07-27T17:47:57.122Z,4.90
2022-07-27T17:50:24.297Z,4.15
2022-07-27T17:52:51.059Z,5.70
2022-07-27T17:55:18.265Z,4.93
2022-07-27T17:57:45.292Z,4.40
2022-07-27T18:00:12.864Z,4.88
2022-07-27T18:02:40.027Z,5.15
2022-07-27T18:05:07.302Z,4.38
2022-07-27T18:07:39.092Z,4.85
2022-07-27T18:10:08.692Z,4.50
2022-07-27T18:12:35.891Z,4.40
2022-07-27T18:15:22.080Z,4.93
2022-07-27T18:17:48.900Z,4.47
2022-07-27T18:20:16.099Z,5.13
2022-07-27T18:22:42.973Z,4.57
2022-07-27T18:25:10.185Z,4.07
2022-07-27T18:27:37.484Z,4.70
2022-07-27T18:30:05.700Z,4.75
2022-07-27T18:32:33.381Z,4.63
2022-07-27T18:35:01.690Z,4.50
2022-07-27T18:37:28.695Z,4.18
2022-07-27T18:39:55.602Z,4.75
2022-07-27T18:42:22.995Z,4.13
2022-07-27T18:44:50.280Z,4.55
2022-07-27T18:47:17.496Z,3.95
2022-07-27T18:49:44.315Z,4.50
2022-07-27T18:52:11.536Z,4.57
2022-07-27T18:54:38.308Z,4.43
2022-07-27T18:57:05.690Z,4.75
2022-07-27T18:59:32.693Z,4.60
2022-07-27T19:02:02.403Z,4.82
2022-07-27T19:04:29.846Z,4.85
2022-07-27T19:06:57.099Z,4.13
2022-07-27T19:09:24.831Z,4.53
2022-07-27T19:11:51.675Z,4.97
2022-07-27T19:14:22.815Z,4.88
2022-07-27T19:16:50.756Z,4.95
2022-07-27T19:19:22.872Z,4.95
2022-07-27T19:21:50.309Z,4.00
2022-07-27T19:24:17.119Z,4.22
2022-07-27T19:26:44.104Z,5.93
2022-07-27T19:29:13.317Z,6.32
2022-07-27T19:31:40.799Z,6.03
2022-07-27T19:34:07.664Z,5.50
2022-07-27T19:36:34.770Z,5.72
2022-07-27T19:39:07.310Z,5.20
2022-07-27T19:41:34.832Z,5.18
2022-07-27T19:44:02.317Z,5.72
2022-07-27T19:46:29.199Z,6.60
2022-07-27T19:48:56.198Z,6.45
2022-07-27T19:51:23.471Z,5.93
2022-07-27T19:53:50.355Z,5.88
2022-07-27T19:56:17.691Z,5.88
2022-07-27T19:58:44.513Z,5.18
2022-07-27T20:01:12.532Z,6.18
2022-07-27T20:03:54.033Z,5.70
2022-07-27T20:06:24.863Z,6.55
2022-07-27T20:08:55.969Z,5.32
2022-07-27T20:11:23.165Z,4.72
2022-07-27T20:13:49.933Z,5.70
2022-07-27T20:16:18.089Z,5.30
2022-07-27T20:18:45.220Z,5.90
2022-07-27T20:21:22.645Z,6.50
2022-07-27T20:23:52.242Z,6.00
2022-07-27T20:26:20.693Z,6.07
2022-07-27T20:28:49.792Z,5.15
2022-07-27T20:31:17.445Z,5.55
2022-07-27T20:33:44.288Z,4.90
2022-07-27T20:36:11.096Z,4.95
2022-07-27T20:38:37.931Z,5.45
2022-07-27T20:41:05.115Z,5.13
2022-07-27T20:43:32.552Z,5.28
2022-07-27T20:45:59.486Z,5.10
2022-07-27T20:48:26.599Z,5.30
2022-07-27T20:50:53.771Z,5.15
2022-07-27T20:53:20.747Z,5.28
2022-07-27T20:55:48.270Z,4.93
2022-07-27T20:58:15.469Z,5.93
2022-07-27T21:00:42.415Z,4.80
2022-07-27T21:03:09.190Z,4.85
2022-07-27T21:05:36.516Z,4.47
2022-07-27T21:08:03.983Z,4.57
2022-07-27T21:10:30.812Z,4.15
2022-07-27T21:12:57.802Z,5.03
2022-07-27T21:15:33.753Z,4.75
2022-07-27T21:18:02.100Z,4.50
2022-07-27T21:20:29.472Z,4.68
2022-07-27T21:23:15.185Z,5.28
2022-07-27T21:25:43.320Z,4.38
2022-07-27T21:28:11.659Z,4.82
2022-07-27T21:30:43.801Z,4.78
2022-07-27T21:33:10.603Z,4.82
2022-07-27T21:35:37.480Z,4.80
2022-07-27T21:38:04.721Z,4.65
2022-07-27T21:40:32.360Z,4.25
2022-07-27T21:42:59.093Z,4.95
2022-07-27T21:45:26.492Z,5.15
2022-07-27T21:47:53.306Z,4.30
2022-07-27T21:50:20.159Z,4.65
2022-07-27T21:52:47.034Z,4.45
2022-07-27T21:55:13.844Z,4.70
2022-07-27T21:57:49.569Z,4.60
2022-07-27T22:00:20.878Z,4.43
2022-07-27T22:02:48.743Z,4.57
2022-07-27T22:05:16.723Z,5.07
2022-07-27T22:07:43.942Z,5.38
2022-07-27T22:10:11.018Z,5.40
2022-07-27T22:12:37.774Z,4.80
2022-07-27T22:15:05.311Z,4.85
2022-07-27T22:17:32.093Z,5.40
2022-07-27T22:19:58.854Z,5.35
2022-07-27T22:22:26.304Z,5.45
2022-07-27T22:24:53.489Z,5.50
2022-07-27T22:27:20.972Z,5.38
2022-07-27T22:29:48.213Z,5.28
2022-07-27T22:32:15.064Z,5.38
2022-07-27T22:34:42.323Z,4.93
2022-07-27T22:37:09.347Z,5.30
2022-07-27T22:39:36.187Z,5.10
2022-07-27T22:42:05.807Z,5.20
2022-07-27T22:44:35.448Z,4.53
2022-07-27T22:47:02.187Z,5.03
2022-07-27T22:49:28.947Z,4.78
2022-07-27T22:51:55.869Z,4.45
2022-07-27T22:54:22.672Z,4.50
2022-07-27T22:56:49.699Z,4.85
2022-07-27T22:59:16.470Z,5.10
2022-07-27T23:01:47.504Z,5.35
2022-07-27T23:04:17.420Z,5.90
2022-07-27T23:06:45.275Z,5.40
2022-07-27T23:09:12.443Z,5.60
2022-07-27T23:11:39.216Z,5.78
2022-07-27T23:14:07.437Z,4.57
2022-07-27T23:16:34.800Z,5.57
2022-07-27T23:19:01.616Z,5.50
2022-07-27T23:21:28.465Z,5.88
2022-07-27T23:23:55.232Z,5.68
2022-07-27T23:26:23.113Z,4.78
2022-07-27T23:28:53.847Z,5.82
2022-07-27T23:31:21.509Z,5.80
2022-07-27T23:33:49.063Z,5.80
2022-07-27T23:36:16.163Z,5.40
2022-07-27T23:38:42.963Z,5.63
2022-07-27T23:41:09.790Z,5.75
2022-07-27T23:43:37.064Z,5.13
2022-07-27T23:46:04.464Z,4.85
2022-07-27T23:48:31.418Z,5.40
2022-07-27T23:50:58.556Z,4.90
2022-07-27T23:53:25.765Z,5.65
2022-07-27T23:55:53.050Z,5.05
2022-07-27T23:58:20.075Z,5.57
